sensor_id;sensor_type;location;lat;lon;timestamp;temperature;humidity
63960;DHT22;50136;51.374;0.096;2024-03-07T00:09:47;3.90;99.90
63960;DHT22;50136;51.374;0.096;2024-03-07T00:19:49;4.40;99.90
63960;DHT22;50136;51.374;0.096;2024-03-07T00:29:53;4.70;99.90
63960;DHT22;50136;51.374;0.096;2024-03-07T00:39:55;4.90;99.90
63960;DHT22;50136;51.374;0.096;2024-03-07T00:49:58;4.90;99.90
63960;DHT22;50136;51.374;0.096;2024-03-07T01:00:01;5.10;99.90
63960;DHT22;50136;51.374;0.096;2024-03-07T01:10:05;5.20;99.90
63960;DHT22;50136;51.374;0.096;2024-03-07T01:20:08;5.40;99.90
63960;DHT22;50136;51.374;0.096;2024-03-07T01:30:12;5.50;99.90
63960;DHT22;50136;51.374;0.096;2024-03-07T01:40:14;5.60;99.90
63960;DHT22;50136;51.374;0.096;2024-03-07T01:50:17;5.60;99.90
63960;DHT22;50136;51.374;0.096;2024-03-07T02:00:19;5.60;99.90
63960;DHT22;50136;51.374;0.096;2024-03-07T02:10:23;5.70;99.90
63960;DHT22;50136;51.374;0.096;2024-03-07T02:20:25;5.80;99.90
63960;DHT22;50136;51.374;0.096;2024-03-07T02:30:28;5.90;99.90
63960;DHT22;50136;51.374;0.096;2024-03-07T02:40:30;6.10;99.90
63960;DHT22;50136;51.374;0.096;2024-03-07T02:50:34;6.20;99.90
63960;DHT22;50136;51.374;0.096;2024-03-07T03:00:36;6.40;99.90
63960;DHT22;50136;51.374;0.096;2024-03-07T03:10:40;6.50;99.90
63960;DHT22;50136;51.374;0.096;2024-03-07T03:20:42;6.60;99.90
63960;DHT22;50136;51.374;0.096;2024-03-07T03:30:45;6.70;99.90
63960;DHT22;50136;51.374;0.096;2024-03-07T03:40:48;6.60;99.90
63960;DHT22;50136;51.374;0.096;2024-03-07T03:50:51;6.50;99.90
63960;DHT22;50136;51.374;0.096;2024-03-07T04:00:53;6.40;99.90
63960;DHT22;50136;51.374;0.096;2024-03-07T04:10:57;6.40;99.90
63960;DHT22;50136;51.374;0.096;2024-03-07T04:20:59;6.50;99.90
63960;DHT22;50136;51.374;0.096;2024-03-07T04:31:03;6.40;99.90
63960;DHT22;50136;51.374;0.096;2024-03-07T04:41:05;6.40;99.90
63960;DHT22;50136;51.374;0.096;2024-03-07T04:51:08;6.30;99.90
63960;DHT22;50136;51.374;0.096;2024-03-07T05:01:11;6.20;99.90
63960;DHT22;50136;51.374;0.096;2024-03-07T05:11:14;6.20;99.90
63960;DHT22;50136;51.374;0.096;2024-03-07T05:21:17;6.30;99.90
63960;DHT22;50136;51.374;0.096;2024-03-07T05:31:20;6.30;99.90
63960;DHT22;50136;51.374;0.096;2024-03-07T05:41:23;6.50;99.90
63960;DHT22;50136;51.374;0.096;2024-03-07T05:51:26;6.60;99.90
63960;DHT22;50136;51.374;0.096;2024-03-07T06:01:28;6.70;99.90
63960;DHT22;50136;51.374;0.096;2024-03-07T06:11:31;6.80;99.90
63960;DHT22;50136;51.374;0.096;2024-03-07T06:21:35;6.80;99.90
63960;DHT22;50136;51.374;0.096;2024-03-07T06:31:38;6.80;99.90
63960;DHT22;50136;51.374;0.096;2024-03-07T06:41:40;6.70;99.90
63960;DHT22;50136;51.374;0.096;2024-03-07T06:51:44;6.70;99.90
63960;DHT22;50136;51.374;0.096;2024-03-07T07:01:46;6.60;99.90
63960;DHT22;50136;51.374;0.096;2024-03-07T07:11:49;6.50;99.90
63960;DHT22;50136;51.374;0.096;2024-03-07T07:21:52;6.40;99.90
63960;DHT22;50136;51.374;0.096;2024-03-07T07:31:55;6.60;99.90
63960;DHT22;50136;51.374;0.096;2024-03-07T07:41:57;6.80;99.90
63960;DHT22;50136;51.374;0.096;2024-03-07T07:52:01;7.00;99.90
63960;DHT22;50136;51.374;0.096;2024-03-07T08:02:03;7.30;99.90
63960;DHT22;50136;51.374;0.096;2024-03-07T08:12:08;7.30;99.90
63960;DHT22;50136;51.374;0.096;2024-03-07T08:22:10;7.70;99.90
63960;DHT22;50136;51.374;0.096;2024-03-07T08:32:13;7.70;99.90
63960;DHT22;50136;51.374;0.096;2024-03-07T08:42:15;7.90;99.90
63960;DHT22;50136;51.374;0.096;2024-03-07T08:52:19;7.90;99.90
63960;DHT22;50136;51.374;0.096;2024-03-07T09:02:21;8.40;99.90
63960;DHT22;50136;51.374;0.096;2024-03-07T09:12:24;8.50;99.90
63960;DHT22;50136;51.374;0.096;2024-03-07T09:22:26;8.80;99.90
63960;DHT22;50136;51.374;0.096;2024-03-07T09:32:30;9.10;99.90
63960;DHT22;50136;51.374;0.096;2024-03-07T09:42:34;9.10;99.90
63960;DHT22;50136;51.374;0.096;2024-03-07T09:52:38;9.30;99.90
63960;DHT22;50136;51.374;0.096;2024-03-07T10:02:44;9.40;99.90
63960;DHT22;50136;51.374;0.096;2024-03-07T10:12:51;9.40;99.90
63960;DHT22;50136;51.374;0.096;2024-03-07T10:22:53;9.50;99.90
63960;DHT22;50136;51.374;0.096;2024-03-07T10:32:57;9.50;99.90
63960;DHT22;50136;51.374;0.096;2024-03-07T10:43:07;10.10;99.90
63960;DHT22;50136;51.374;0.096;2024-03-07T10:53:19;10.10;99.90
63960;DHT22;50136;51.374;0.096;2024-03-07T11:03:21;10.30;99.90
63960;DHT22;50136;51.374;0.096;2024-03-07T11:13:25;9.90;99.90
63960;DHT22;50136;51.374;0.096;2024-03-07T11:23:28;10.30;99.90
63960;DHT22;50136;51.374;0.096;2024-03-07T11:33:33;10.40;99.90
63960;DHT22;50136;51.374;0.096;2024-03-07T11:43:35;10.60;99.90
63960;DHT22;50136;51.374;0.096;2024-03-07T11:53:40;10.70;99.90
63960;DHT22;50136;51.374;0.096;2024-03-07T12:03:42;10.70;99.90
63960;DHT22;50136;51.374;0.096;2024-03-07T12:13:45;11.10;99.90
63960;DHT22;50136;51.374;0.096;2024-03-07T12:23:47;11.00;99.90
63960;DHT22;50136;51.374;0.096;2024-03-07T12:33:51;11.00;99.90
63960;DHT22;50136;51.374;0.096;2024-03-07T12:43:54;10.70;99.90
63960;DHT22;50136;51.374;0.096;2024-03-07T12:53:57;10.70;99.90
63960;DHT22;50136;51.374;0.096;2024-03-07T13:04:00;10.80;99.90
63960;DHT22;50136;51.374;0.096;2024-03-07T13:14:03;11.10;99.90
63960;DHT22;50136;51.374;0.096;2024-03-07T13:24:06;11.10;99.90
63960;DHT22;50136;51.374;0.096;2024-03-07T13:34:09;11.10;99.90
63960;DHT22;50136;51.374;0.096;2024-03-07T13:44:12;11.20;99.90
63960;DHT22;50136;51.374;0.096;2024-03-07T13:54:15;11.10;99.90
63960;DHT22;50136;51.374;0.096;2024-03-07T14:04:45;10.70;99.90
63960;DHT22;50136;51.374;0.096;2024-03-07T14:15:27;10.30;99.90
63960;DHT22;50136;51.374;0.096;2024-03-07T14:25:46;10.20;99.90
63960;DHT22;50136;51.374;0.096;2024-03-07T14:36:04;10.30;99.90
63960;DHT22;50136;51.374;0.096;2024-03-07T14:46:08;10.70;99.90
63960;DHT22;50136;51.374;0.096;2024-03-07T14:56:12;10.80;99.90
63960;DHT22;50136;51.374;0.096;2024-03-07T15:06:14;10.80;99.90
63960;DHT22;50136;51.374;0.096;2024-03-07T15:16:17;10.90;99.90
63960;DHT22;50136;51.374;0.096;2024-03-07T15:26:34;10.70;99.90
63960;DHT22;50136;51.374;0.096;2024-03-07T15:36:37;10.50;99.90
63960;DHT22;50136;51.374;0.096;2024-03-07T15:46:40;10.20;99.90
63960;DHT22;50136;51.374;0.096;2024-03-07T15:56:43;10.00;99.90
63960;DHT22;50136;51.374;0.096;2024-03-07T16:06:45;10.20;99.90
63960;DHT22;50136;51.374;0.096;2024-03-07T16:16:49;10.20;99.90
63960;DHT22;50136;51.374;0.096;2024-03-07T16:26:51;10.20;99.90
63960;DHT22;50136;51.374;0.096;2024-03-07T16:36:54;9.90;99.90
63960;DHT22;50136;51.374;0.096;2024-03-07T16:46:56;9.50;99.90
63960;DHT22;50136;51.374;0.096;2024-03-07T16:57:00;9.40;99.90
63960;DHT22;50136;51.374;0.096;2024-03-07T17:07:02;9.10;99.90
63960;DHT22;50136;51.374;0.096;2024-03-07T17:17:06;8.80;99.90
63960;DHT22;50136;51.374;0.096;2024-03-07T17:27:08;8.60;99.90
63960;DHT22;50136;51.374;0.096;2024-03-07T17:37:12;8.50;99.90
63960;DHT22;50136;51.374;0.096;2024-03-07T17:47:16;8.40;99.90
63960;DHT22;50136;51.374;0.096;2024-03-07T17:57:19;8.30;99.90
63960;DHT22;50136;51.374;0.096;2024-03-07T18:07:21;8.20;99.90
63960;DHT22;50136;51.374;0.096;2024-03-07T18:17:24;8.00;99.90
63960;DHT22;50136;51.374;0.096;2024-03-07T18:27:26;7.90;99.90
63960;DHT22;50136;51.374;0.096;2024-03-07T18:37:30;7.90;99.90
63960;DHT22;50136;51.374;0.096;2024-03-07T18:47:32;7.80;99.90
63960;DHT22;50136;51.374;0.096;2024-03-07T18:57:35;7.80;99.90
63960;DHT22;50136;51.374;0.096;2024-03-07T19:07:37;7.60;99.90
63960;DHT22;50136;51.374;0.096;2024-03-07T19:17:41;7.60;99.90
63960;DHT22;50136;51.374;0.096;2024-03-07T19:27:45;7.70;99.90
63960;DHT22;50136;51.374;0.096;2024-03-07T19:37:49;7.80;99.90
63960;DHT22;50136;51.374;0.096;2024-03-07T19:47:51;7.80;99.90
63960;DHT22;50136;51.374;0.096;2024-03-07T19:57:54;7.70;99.90
63960;DHT22;50136;51.374;0.096;2024-03-07T20:07:56;7.80;99.90
63960;DHT22;50136;51.374;0.096;2024-03-07T20:18:00;7.90;99.90
63960;DHT22;50136;51.374;0.096;2024-03-07T20:28:02;7.70;99.90
63960;DHT22;50136;51.374;0.096;2024-03-07T20:38:06;7.80;99.90
63960;DHT22;50136;51.374;0.096;2024-03-07T20:48:08;7.60;99.90
63960;DHT22;50136;51.374;0.096;2024-03-07T20:58:11;7.50;99.90
63960;DHT22;50136;51.374;0.096;2024-03-07T21:08:15;7.40;99.90
63960;DHT22;50136;51.374;0.096;2024-03-07T21:18:18;7.20;99.90
63960;DHT22;50136;51.374;0.096;2024-03-07T21:28:22;7.30;99.90
63960;DHT22;50136;51.374;0.096;2024-03-07T21:38:37;7.30;99.90
63960;DHT22;50136;51.374;0.096;2024-03-07T21:48:42;7.20;99.90
63960;DHT22;50136;51.374;0.096;2024-03-07T21:58:45;7.10;99.90
63960;DHT22;50136;51.374;0.096;2024-03-07T22:09:08;7.10;99.90
63960;DHT22;50136;51.374;0.096;2024-03-07T22:19:11;6.90;99.90
63960;DHT22;50136;51.374;0.096;2024-03-07T22:29:13;6.60;99.90
63960;DHT22;50136;51.374;0.096;2024-03-07T22:39:17;6.50;99.90
63960;DHT22;50136;51.374;0.096;2024-03-07T22:49:19;6.40;99.90
63960;DHT22;50136;51.374;0.096;2024-03-07T22:59:23;6.20;99.90
63960;DHT22;50136;51.374;0.096;2024-03-07T23:09:25;5.90;99.90
63960;DHT22;50136;51.374;0.096;2024-03-07T23:19:28;5.80;99.90
63960;DHT22;50136;51.374;0.096;2024-03-07T23:29:30;5.60;99.90
63960;DHT22;50136;51.374;0.096;2024-03-07T23:39:33;5.50;99.90
63960;DHT22;50136;51.374;0.096;2024-03-07T23:49:35;5.50;99.90
63960;DHT22;50136;51.374;0.096;2024-03-07T23:59:39;5.40;99.90
